Time;durP1;ratioP1;P1;durP2;ratioP2;P2;SDS_P1;SDS_P2;PMS_P1;PMS_P2;Temp;Humidity;BMP_temperature;BMP_pressure;BME280_temperature;BME280_humidity;BME280_pressure;Samples;Min_cycle;Max_cycle;Signal;HPM_P1;HPM_P2
2021/05/20 00:00:24;;;;;;;;;;;;;;;11.15;100.00;98233.31;3455405;28;19937;-51
2021/05/20 00:02:05;;;;;;;;;;;;;;;11.15;100.00;98235.91;3455678;28;19933;-44
2021/05/20 00:03:47;;;;;;;;;;;;;;;11.16;100.00;98232.41;3454603;28;20030;-51
2021/05/20 00:05:28;;;;;;;;;;;;;;;11.17;100.00;98231.56;3456470;28;19937;-44
2021/05/20 00:07:10;;;;;;;;;;;;;;;11.16;100.00;98228.06;3454836;28;19936;-44
2021/05/20 00:08:51;;;;;;;;;;;;;;;11.14;100.00;98227.25;3456256;28;19979;-50
2021/05/20 00:10:32;;;;;;;;;;;;;;;11.15;100.00;98228.13;3455527;28;19988;-44
2021/05/20 00:12:14;;;;;;;;;;;;;;;11.14;100.00;98224.66;3457056;28;19930;-44
2021/05/20 00:13:55;;;;;;;;;;;;;;;11.14;100.00;98221.19;3453903;28;20016;-44
2021/05/20 00:15:37;;;;;;;;;;;;;;;11.13;100.00;98222.06;3454841;28;19975;-44
2021/05/20 00:17:18;;;;;;;;;;;;;;;11.13;100.00;98222.06;3456029;28;20177;-44
2021/05/20 00:18:59;;;;;;;;;;;;;;;11.12;100.00;98218.63;3455130;28;19968;-48
2021/05/20 00:20:40;;;;;;;;;;;;;;;11.11;100.00;98222.13;3455582;28;20410;-52
2021/05/20 00:22:21;;;;;;;;;;;;;;;11.11;100.00;98224.72;3454382;28;20291;-52
2021/05/20 00:24:04;;;;;;;;;;;;;;;11.11;100.00;98219.50;3456131;28;20314;-52
2021/05/20 00:25:45;;;;;;;;;;;;;;;11.10;100.00;98222.13;3456141;28;19936;-52
2021/05/20 00:27:26;;;;;;;;;;;;;;;11.10;100.00;98228.16;3455969;28;20393;-46
2021/05/20 00:29:07;;;;;;;;;;;;;;;11.10;100.00;98227.31;3456070;28;19936;-46
2021/05/20 00:30:49;;;;;;;;;;;;;;;11.10;100.00;98222.13;3454818;28;20442;-56
2021/05/20 00:32:30;;;;;;;;;;;;;;;11.09;100.00;98225.59;3456619;28;20030;-56
2021/05/20 00:34:11;;;;;;;;;;;;;;;11.06;100.00;98229.94;3456085;28;19933;-45
2021/05/20 00:35:53;;;;;;;;;;;;;;;11.05;100.00;98225.63;3457008;28;19930;-46
2021/05/20 00:37:34;;;;;;;;;;;;;;;11.05;100.00;98230.81;3455146;28;20365;-45
2021/05/20 00:39:15;;;;;;;;;;;;;;;11.05;100.00;98229.94;3455151;28;19936;-47
2021/05/20 00:41:00;;;;;;;;;;;;;;;11.05;100.00;98230.81;3455394;28;19976;-51
2021/05/20 00:42:43;;;;;;;;;;;;;;;11.04;100.00;98229.09;3455427;28;20296;-54
2021/05/20 00:44:24;;;;;;;;;;;;;;;11.04;100.00;98225.63;3456343;28;19961;-45
2021/05/20 00:46:07;;;;;;;;;;;;;;;11.02;100.00;98230.88;3454934;28;19929;-46
2021/05/20 00:47:49;;;;;;;;;;;;;;;11.01;100.00;98233.47;3455277;28;19929;-52
2021/05/20 00:49:30;;;;;;;;;;;;;;;11.00;100.00;98226.56;3455345;28;20251;-54
2021/05/20 00:51:11;;;;;;;;;;;;;;;11.00;100.00;98236.94;3455378;28;19933;-55
2021/05/20 00:52:52;;;;;;;;;;;;;;;10.98;100.00;98226.56;3455275;28;20027;-46
2021/05/20 00:54:34;;;;;;;;;;;;;;;10.98;100.00;98242.13;3456001;28;19929;-46
2021/05/20 00:56:15;;;;;;;;;;;;;;;10.98;100.00;98229.16;3455208;28;19929;-56
2021/05/20 00:57:59;;;;;;;;;;;;;;;10.97;100.00;98239.56;3455629;28;19987;-46
2021/05/20 00:59:41;;;;;;;;;;;;;;;10.97;100.00;98231.75;3456293;28;19940;-54
2021/05/20 01:01:23;;;;;;;;;;;;;;;10.96;100.00;98240.44;3455515;28;19979;-54
2021/05/20 01:03:04;;;;;;;;;;;;;;;10.97;100.00;98243.03;3454639;28;19980;-54
2021/05/20 01:04:46;;;;;;;;;;;;;;;10.97;100.00;98239.56;3455149;28;19930;-55
2021/05/20 01:06:27;;;;;;;;;;;;;;;10.95;100.00;98236.13;3454237;28;19933;-45
2021/05/20 01:08:08;;;;;;;;;;;;;;;10.95;100.00;98243.91;3456071;28;19936;-54
2021/05/20 01:09:49;;;;;;;;;;;;;;;10.94;100.00;98240.47;3456685;28;19929;-55
2021/05/20 01:11:31;;;;;;;;;;;;;;;10.92;100.00;98234.44;3455034;28;19934;-45
2021/05/20 01:13:12;;;;;;;;;;;;;;;10.92;100.00;98234.44;3453586;28;20000;-52
2021/05/20 01:14:53;;;;;;;;;;;;;;;10.91;100.00;98244.81;3453872;28;20011;-53
2021/05/20 01:16:35;;;;;;;;;;;;;;;10.91;100.00;98239.63;3455432;28;20019;-47
2021/05/20 01:18:16;;;;;;;;;;;;;;;10.90;100.00;98233.59;3455957;28;20430;-45
2021/05/20 01:19:57;;;;;;;;;;;;;;;10.90;100.00;98227.53;3455409;28;19929;-55
2021/05/20 01:21:40;;;;;;;;;;;;;;;10.89;100.00;98231.00;3455950;28;19972;-53
2021/05/20 01:23:21;;;;;;;;;;;;;;;10.89;100.00;98221.47;3456234;28;19936;-49
2021/05/20 01:25:02;;;;;;;;;;;;;;;10.89;100.00;98231.00;3455672;28;19940;-44
2021/05/20 01:26:43;;;;;;;;;;;;;;;10.89;100.00;98236.19;3455478;28;19937;-53
2021/05/20 01:28:25;;;;;;;;;;;;;;;10.89;100.00;98226.66;3456204;28;20390;-50
2021/05/20 01:30:07;;;;;;;;;;;;;;;10.90;100.00;98219.75;3454007;28;19951;-51
2021/05/20 01:31:49;;;;;;;;;;;;;;;10.91;100.00;98229.25;3455257;28;19930;-51
2021/05/20 01:33:30;;;;;;;;;;;;;;;10.91;100.00;98224.06;3454509;28;19933;-45
2021/05/20 01:35:11;;;;;;;;;;;;;;;10.91;100.00;98229.25;3454073;28;19929;-44
2021/05/20 01:36:54;;;;;;;;;;;;;;;10.92;100.00;98218.88;3456861;28;19983;-46
2021/05/20 01:38:44;;;;;;;;;;;;;;;10.93;100.00;98228.34;3457436;28;20414;-45
2021/05/20 01:40:25;;;;;;;;;;;;;;;10.93;100.00;98227.50;3444127;28;19965;-49
2021/05/20 01:42:08;;;;;;;;;;;;;;;10.92;100.00;98218.88;3453724;28;19936;-51
2021/05/20 01:43:49;;;;;;;;;;;;;;;10.94;99.82;98232.69;3456625;28;20391;-53
2021/05/20 01:45:31;;;;;;;;;;;;;;;10.94;100.00;98218.84;3456972;28;19933;-51
2021/05/20 01:47:12;;;;;;;;;;;;;;;10.95;99.95;98221.41;3457695;28;19977;-53
2021/05/20 01:48:53;;;;;;;;;;;;;;;10.96;99.44;98217.94;3456175;28;19929;-55
2021/05/20 01:50:34;;;;;;;;;;;;;;;10.96;99.55;98217.94;3455916;28;20381;-55
2021/05/20 01:52:16;;;;;;;;;;;;;;;10.95;99.54;98216.22;3456985;28;20391;-56
2021/05/20 01:53:58;;;;;;;;;;;;;;;10.96;99.66;98227.47;3455949;28;19933;-46
2021/05/20 01:55:39;;;;;;;;;;;;;;;10.95;99.64;98225.75;3456677;28;19972;-45
2021/05/20 01:57:20;;;;;;;;;;;;;;;10.94;99.50;98224.03;3456389;28;19969;-56
2021/05/20 01:59:01;;;;;;;;;;;;;;;10.95;99.24;98221.41;3456135;28;20369;-56
2021/05/20 02:00:43;;;;;;;;;;;;;;;10.94;99.05;98227.47;3456638;28;19973;-55
2021/05/20 02:02:24;;;;;;;;;;;;;;;10.92;98.87;98212.78;3455704;28;19988;-54
2021/05/20 02:04:05;;;;;;;;;;;;;;;10.92;99.04;98224.06;3457175;28;19936;-54
2021/05/20 02:05:47;;;;;;;;;;;;;;;10.91;99.24;98219.72;3456286;28;19936;-55
2021/05/20 02:07:28;;;;;;;;;;;;;;;10.91;98.76;98213.69;3456887;28;19930;-52
2021/05/20 02:09:09;;;;;;;;;;;;;;;10.90;98.91;98220.63;3457699;28;19984;-55
2021/05/20 02:10:51;;;;;;;;;;;;;;;10.90;98.80;98223.22;3456145;28;20401;-45
2021/05/20 02:12:32;;;;;;;;;;;;;;;10.90;98.47;98218.03;3457367;28;19941;-56
2021/05/20 02:14:13;;;;;;;;;;;;;;;10.90;98.52;98214.56;3454554;28;20339;-45
2021/05/20 02:15:54;;;;;;;;;;;;;;;10.89;98.33;98213.69;3457496;28;19930;-56
2021/05/20 02:17:36;;;;;;;;;;;;;;;10.89;98.50;98218.88;3457136;28;19930;-55
2021/05/20 02:19:17;;;;;;;;;;;;;;;10.89;98.50;98218.03;3456911;28;19976;-57
2021/05/20 02:20:58;;;;;;;;;;;;;;;10.87;98.31;98218.06;3456471;28;20429;-55
2021/05/20 02:22:40;;;;;;;;;;;;;;;10.87;98.16;98215.47;3456498;28;19936;-55
2021/05/20 02:24:21;;;;;;;;;;;;;;;10.87;98.32;98218.06;3455400;28;19937;-45
2021/05/20 02:26:05;;;;;;;;;;;;;;;10.86;98.35;98219.78;3455855;28;19933;-45
2021/05/20 02:27:46;;;;;;;;;;;;;;;10.85;98.37;98228.44;3457791;28;19933;-45
2021/05/20 02:29:29;;;;;;;;;;;;;;;10.84;98.09;98229.31;3457083;28;19929;-55
2021/05/20 02:31:10;;;;;;;;;;;;;;;10.84;98.09;98215.47;3456794;28;19929;-44
2021/05/20 02:32:51;;;;;;;;;;;;;;;10.85;98.32;98217.22;3457031;28;19933;-44
2021/05/20 02:34:32;;;;;;;;;;;;;;;10.84;98.32;98229.31;3456894;28;20464;-57
2021/05/20 02:36:14;;;;;;;;;;;;;;;10.84;98.04;98223.25;3455455;28;19968;-53
2021/05/20 02:37:55;;;;;;;;;;;;;;;10.83;97.99;98226.75;3455930;28;19929;-51
2021/05/20 02:39:37;;;;;;;;;;;;;;;10.83;97.92;98217.22;3443152;28;20037;-53
2021/05/20 02:41:18;;;;;;;;;;;;;;;10.82;98.06;98215.50;3452117;28;19936;-51
2021/05/20 02:42:59;;;;;;;;;;;;;;;10.82;97.82;98218.09;3456441;28;20019;-54
2021/05/20 02:44:40;;;;;;;;;;;;;;;10.83;97.67;98221.56;3457801;28;20337;-44
2021/05/20 02:46:23;;;;;;;;;;;;;;;10.82;97.40;98219.84;3455455;28;19937;-45
2021/05/20 02:48:04;;;;;;;;;;;;;;;10.83;97.39;98224.16;3456475;28;19999;-44
2021/05/20 02:49:45;;;;;;;;;;;;;;;10.84;97.45;98218.06;3455702;28;20299;-44
2021/05/20 02:51:27;;;;;;;;;;;;;;;10.85;97.37;98222.41;3456650;28;19929;-51
2021/05/20 02:53:08;;;;;;;;;;;;;;;10.82;96.78;98210.31;3456264;28;19929;-45
2021/05/20 02:54:49;;;;;;;;;;;;;;;10.85;96.60;98217.22;3456872;28;19933;-44
2021/05/20 02:56:31;;;;;;;;;;;;;;;10.83;96.35;98212.03;3455975;28;19929;-44
2021/05/20 02:58:15;;;;;;;;;;;;;;;10.84;96.31;98216.34;3455902;28;19941;-44
2021/05/20 02:59:56;;;;;;;;;;;;;;;10.85;96.49;98206.84;3456874;28;19933;-50
2021/05/20 03:01:42;;;;;;;;;;;;;;;10.85;96.45;98223.25;3457101;28;20023;-44
2021/05/20 03:03:23;;;;;;;;;;;;;;;10.85;95.85;98212.03;3456473;28;20418;-50
2021/05/20 03:05:05;;;;;;;;;;;;;;;10.85;95.82;98217.22;3456353;28;19929;-53
2021/05/20 03:06:46;;;;;;;;;;;;;;;10.85;95.49;98209.44;3456219;28;19929;-43
2021/05/20 03:08:28;;;;;;;;;;;;;;;10.85;95.40;98212.88;3457122;28;19929;-50
2021/05/20 03:10:11;;;;;;;;;;;;;;;10.86;95.40;98209.41;3457768;28;19982;-50
2021/05/20 03:11:52;;;;;;;;;;;;;;;10.87;95.43;98215.47;3455907;28;19929;-51
2021/05/20 03:13:34;;;;;;;;;;;;;;;10.88;95.12;98217.16;3453921;28;19937;-50
2021/05/20 03:15:16;;;;;;;;;;;;;;;10.87;95.02;98213.72;3457030;28;20426;-50
2021/05/20 03:16:57;;;;;;;;;;;;;;;10.90;94.81;98219.75;3455743;28;19929;-44
2021/05/20 03:18:38;;;;;;;;;;;;;;;10.91;94.84;98227.50;3457040;28;20485;-51
2021/05/20 03:20:19;;;;;;;;;;;;;;;10.91;94.54;98224.06;3456232;28;19933;-43
2021/05/20 03:22:00;;;;;;;;;;;;;;;10.93;94.56;98222.31;3457382;28;19980;-50
2021/05/20 03:23:42;;;;;;;;;;;;;;;10.93;94.25;98219.72;3455674;28;20004;-49
2021/05/20 03:25:24;;;;;;;;;;;;;;;10.94;94.47;98218.84;3455698;28;19930;-51
2021/05/20 03:27:05;;;;;;;;;;;;;;;10.96;94.52;98219.69;3456166;28;20405;-51
2021/05/20 03:28:46;;;;;;;;;;;;;;;10.97;94.45;98234.34;3456523;28;19964;-49
2021/05/20 03:30:27;;;;;;;;;;;;;;;10.98;94.18;98221.38;3456725;28;19969;-50
2021/05/20 03:32:09;;;;;;;;;;;;;;;10.98;93.72;98223.13;3456069;28;19977;-44
2021/05/20 03:33:50;;;;;;;;;;;;;;;10.98;93.37;98218.78;3456970;28;19937;-51
2021/05/20 03:35:31;;;;;;;;;;;;;;;10.98;93.56;98216.19;3456113;28;20218;-44
2021/05/20 03:37:12;;;;;;;;;;;;;;;10.99;93.30;98225.69;3456623;28;19934;-49
2021/05/20 03:38:54;;;;;;;;;;;;;;;10.99;93.00;98223.09;3456724;28;19959;-45
2021/05/20 03:40:35;;;;;;;;;;;;;;;11.01;93.18;98217.91;3456495;28;20406;-44
2021/05/20 03:42:16;;;;;;;;;;;;;;;11.02;92.98;98223.06;3456274;28;19930;-49
2021/05/20 03:43:57;;;;;;;;;;;;;;;11.03;92.87;98224.78;3456134;28;19983;-43
2021/05/20 03:45:43;;;;;;;;;;;;;;;11.06;92.45;98209.19;3456566;28;19929;-44
2021/05/20 03:47:24;;;;;;;;;;;;;;;11.09;92.40;98212.59;3455583;28;19929;-44
2021/05/20 03:49:06;;;;;;;;;;;;;;;11.11;92.62;98205.66;3455690;28;20387;-51
2021/05/20 03:50:50;;;;;;;;;;;;;;;11.15;93.23;98217.75;3455989;28;19929;-49
2021/05/20 03:52:31;;;;;;;;;;;;;;;11.18;92.69;98212.50;3455065;28;19991;-50
2021/05/20 03:54:13;;;;;;;;;;;;;;;11.20;93.06;98224.59;3456670;28;19929;-43
2021/05/20 03:55:53;;;;;;;;;;;;;;;11.21;93.09;98221.09;3453798;28;19964;-43
2021/05/20 03:57:35;;;;;;;;;;;;;;;11.23;92.81;98221.09;3456936;28;19929;-50
2021/05/20 03:59:16;;;;;;;;;;;;;;;11.23;92.75;98234.91;3456016;28;19977;-51
2021/05/20 04:00:57;;;;;;;;;;;;;;;11.24;92.82;98225.41;3455149;28;19937;-44
2021/05/20 04:02:38;;;;;;;;;;;;;;;11.27;93.07;98224.50;3456244;28;19983;-43
2021/05/20 04:04:19;;;;;;;;;;;;;;;11.28;93.21;98227.06;3455019;28;20364;-50
2021/05/20 04:06:02;;;;;;;;;;;;;;;11.30;92.92;98227.91;3456387;28;19972;-51
2021/05/20 04:07:43;;;;;;;;;;;;;;;11.30;92.49;98229.66;3456533;28;19956;-43
2021/05/20 04:09:25;;;;;;;;;;;;;;;11.28;92.20;98240.06;3456630;28;19929;-50
2021/05/20 04:11:06;;;;;;;;;;;;;;;11.28;92.08;98232.28;3455585;28;19930;-44
2021/05/20 04:12:47;;;;;;;;;;;;;;;11.31;92.35;98228.78;3456375;28;20485;-50
2021/05/20 04:14:28;;;;;;;;;;;;;;;11.34;92.38;98236.56;3454685;28;19933;-43
2021/05/20 04:16:11;;;;;;;;;;;;;;;11.32;92.66;98231.38;3447100;28;20516;-44
2021/05/20 04:17:55;;;;;;;;;;;;;;;11.32;91.90;98231.38;3455538;28;19933;-44
2021/05/20 04:19:36;;;;;;;;;;;;;;;11.32;92.28;98221.00;3456383;28;19979;-53
2021/05/20 04:21:17;;;;;;;;;;;;;;;11.32;92.08;98236.56;3455113;28;19936;-49
2021/05/20 04:22:58;;;;;;;;;;;;;;;11.31;91.60;98253.03;3455940;28;19930;-52
2021/05/20 04:24:40;;;;;;;;;;;;;;;11.29;91.33;98241.78;3456011;28;19933;-45
2021/05/20 04:26:21;;;;;;;;;;;;;;;11.29;91.66;98231.41;3456249;28;19936;-51
2021/05/20 04:28:03;;;;;;;;;;;;;;;11.28;91.18;98234.03;3455124;28;20256;-50
2021/05/20 04:29:44;;;;;;;;;;;;;;;11.27;91.50;98233.16;3456196;28;19929;-45
2021/05/20 04:31:25;;;;;;;;;;;;;;;11.27;91.83;98240.97;3455861;28;20310;-49
2021/05/20 04:33:07;;;;;;;;;;;;;;;11.28;91.84;98239.22;3455197;28;19936;-50
2021/05/20 04:34:48;;;;;;;;;;;;;;;11.28;91.85;98245.25;3455587;28;19937;-52
2021/05/20 04:36:29;;;;;;;;;;;;;;;11.27;91.17;98243.56;3454724;28;19930;-52
2021/05/20 04:38:13;;;;;;;;;;;;;;;11.29;91.34;98236.59;3455893;28;19951;-44
2021/05/20 04:39:54;;;;;;;;;;;;;;;11.31;91.00;98239.19;3455889;28;20406;-51
2021/05/20 04:41:36;;;;;;;;;;;;;;;11.34;90.93;98244.34;3456264;28;20000;-51
2021/05/20 04:43:17;;;;;;;;;;;;;;;11.37;90.83;98241.72;3454927;28;19930;-50
2021/05/20 04:44:58;;;;;;;;;;;;;;;11.38;90.33;98246.03;3455046;28;19940;-50
2021/05/20 04:46:39;;;;;;;;;;;;;;;11.40;90.39;98245.13;3456366;28;19929;-52
2021/05/20 04:48:20;;;;;;;;;;;;;;;11.42;90.23;98245.13;3455145;28;20018;-51
2021/05/20 04:50:02;;;;;;;;;;;;;;;11.46;89.99;98261.50;3456042;28;19937;-44
2021/05/20 04:51:43;;;;;;;;;;;;;;;11.46;89.90;98241.59;3456700;28;20303;-50
2021/05/20 04:53:24;;;;;;;;;;;;;;;11.50;89.82;98266.66;3455637;28;19937;-54
2021/05/20 04:55:07;;;;;;;;;;;;;;;11.52;88.99;98253.66;3455185;28;19930;-44
2021/05/20 04:56:53;;;;;;;;;;;;;;;11.53;88.83;98252.75;3455259;28;19936;-51
2021/05/20 04:58:34;;;;;;;;;;;;;;;11.56;89.29;98250.13;3455276;28;20346;-44
2021/05/20 05:00:16;;;;;;;;;;;;;;;11.60;88.89;98259.59;3455504;28;19929;-44
2021/05/20 05:01:56;;;;;;;;;;;;;;;11.63;88.42;98260.41;3455789;28;20021;-51
2021/05/20 05:03:38;;;;;;;;;;;;;;;11.67;88.43;98263.81;3454925;28;20441;-45
2021/05/20 05:05:19;;;;;;;;;;;;;;;11.75;88.44;98256.78;3455703;28;20431;-44
2021/05/20 05:07:00;;;;;;;;;;;;;;;11.80;87.80;98254.16;3454566;28;19976;-49
2021/05/20 05:08:41;;;;;;;;;;;;;;;11.85;87.87;98249.72;3455239;28;20414;-44
2021/05/20 05:10:23;;;;;;;;;;;;;;;11.93;87.61;98265.22;3457577;28;19933;-50
2021/05/20 05:12:05;;;;;;;;;;;;;;;12.00;88.29;98259.03;3458472;28;19936;-49
2021/05/20 05:13:46;;;;;;;;;;;;;;;12.09;87.71;98265.84;3457208;28;20000;-44
2021/05/20 05:15:28;;;;;;;;;;;;;;;12.17;86.46;98251.84;3457476;28;19980;-44
2021/05/20 05:17:09;;;;;;;;;;;;;;;12.24;86.50;98257.81;3457801;28;19956;-44
2021/05/20 05:18:50;;;;;;;;;;;;;;;12.31;85.11;98266.34;3458176;28;20414;-50
2021/05/20 05:20:32;;;;;;;;;;;;;;;12.41;85.43;98267.06;3458134;28;19930;-44
2021/05/20 05:22:13;;;;;;;;;;;;;;;12.57;85.72;98277.19;3457120;28;20549;-50
2021/05/20 05:23:54;;;;;;;;;;;;;;;12.67;84.51;98280.50;3456666;28;19960;-44
2021/05/20 05:25:37;;;;;;;;;;;;;;;12.73;83.05;98279.53;3458251;28;19944;-50
2021/05/20 05:27:18;;;;;;;;;;;;;;;12.79;83.06;98276.84;3456886;28;19937;-49
2021/05/20 05:28:59;;;;;;;;;;;;;;;12.85;83.06;98281.91;3457823;28;19929;-50
2021/05/20 05:30:41;;;;;;;;;;;;;;;12.89;82.92;98287.91;3458250;28;19995;-44
2021/05/20 05:32:23;;;;;;;;;;;;;;;12.90;83.04;98284.44;3459208;28;19975;-44
2021/05/20 05:34:04;;;;;;;;;;;;;;;12.98;82.65;98281.72;3457644;28;19929;-50
2021/05/20 05:35:45;;;;;;;;;;;;;;;13.10;83.27;98271.94;3456511;28;19930;-51
2021/05/20 05:37:27;;;;;;;;;;;;;;;13.19;82.21;98283.91;3457817;28;20283;-52
2021/05/20 05:39:08;;;;;;;;;;;;;;;13.18;82.32;98278.72;3457074;28;19930;-51
2021/05/20 05:40:50;;;;;;;;;;;;;;;13.19;82.68;98283.06;3457646;28;19929;-44
2021/05/20 05:42:31;;;;;;;;;;;;;;;13.19;82.58;98294.31;3456221;28;20383;-52
2021/05/20 05:44:13;;;;;;;;;;;;;;;13.19;82.64;98290.88;3457189;28;19937;-49
2021/05/20 05:45:54;;;;;;;;;;;;;;;13.15;82.35;98292.69;3457146;28;19941;-44
2021/05/20 05:47:35;;;;;;;;;;;;;;;13.06;82.38;98291.09;3456408;28;19929;-49
2021/05/20 05:49:19;;;;;;;;;;;;;;;13.05;83.48;98301.53;3457934;28;19930;-51
2021/05/20 05:51:00;;;;;;;;;;;;;;;13.07;83.10;98299.75;3455883;28;19980;-50
2021/05/20 05:52:42;;;;;;;;;;;;;;;13.09;82.57;98291.06;3457892;28;19933;-45
2021/05/20 05:54:23;;;;;;;;;;;;;;;13.11;82.01;98304.91;3456706;28;19937;-50
2021/05/20 05:56:05;;;;;;;;;;;;;;;13.19;82.48;98296.94;3456972;28;20298;-50
2021/05/20 05:57:48;;;;;;;;;;;;;;;13.24;81.88;98299.47;3457520;28;19959;-45
2021/05/20 05:59:29;;;;;;;;;;;;;;;13.31;81.98;98296.69;3456971;28;20446;-52
2021/05/20 06:01:10;;;;;;;;;;;;;;;13.39;81.13;98293.97;3457461;28;19972;-45
2021/05/20 06:02:51;;;;;;;;;;;;;;;13.50;81.40;98291.13;3457459;28;20386;-53
2021/05/20 06:04:33;;;;;;;;;;;;;;;13.54;79.01;98305.81;3457846;28;20468;-46
2021/05/20 06:06:15;;;;;;;;;;;;;;;13.59;79.14;98295.31;3457045;28;19929;-45
2021/05/20 06:07:56;;;;;;;;;;;;;;;13.59;78.82;98306.56;3458671;28;19929;-50
2021/05/20 06:09:37;;;;;;;;;;;;;;;13.63;79.61;98286.53;3457209;28;19976;-46
2021/05/20 06:11:19;;;;;;;;;;;;;;;13.66;78.49;98308.16;3456315;28;19929;-45
2021/05/20 06:13:00;;;;;;;;;;;;;;;13.70;79.47;98303.75;3456417;28;19952;-45
2021/05/20 06:14:41;;;;;;;;;;;;;;;13.74;79.17;98301.94;3455641;28;19979;-45
2021/05/20 06:16:22;;;;;;;;;;;;;;;13.77;79.45;98307.94;3456737;28;19937;-45
2021/05/20 06:18:04;;;;;;;;;;;;;;;13.72;77.24;98317.59;3456579;28;20382;-45
2021/05/20 06:19:45;;;;;;;;;;;;;;;13.71;78.34;98319.34;3457285;28;19936;-50
2021/05/20 06:21:26;;;;;;;;;;;;;;;13.69;76.97;98312.47;3455481;28;20299;-52
2021/05/20 06:23:08;;;;;;;;;;;;;;;13.67;77.81;98314.22;3456648;28;20379;-54
2021/05/20 06:24:49;;;;;;;;;;;;;;;13.66;78.08;98331.59;3456669;28;19980;-45
2021/05/20 06:26:31;;;;;;;;;;;;;;;13.67;77.78;98322.03;3456731;28;20331;-53
2021/05/20 06:28:12;;;;;;;;;;;;;;;13.62;78.25;98322.16;3457500;28;19929;-44
2021/05/20 06:29:54;;;;;;;;;;;;;;;13.56;77.82;98329.22;3456095;28;19944;-47
2021/05/20 06:31:35;;;;;;;;;;;;;;;13.47;77.12;98325.06;3457440;28;19929;-45
2021/05/20 06:33:17;;;;;;;;;;;;;;;13.46;77.90;98316.38;3456456;28;19936;-45
2021/05/20 06:34:58;;;;;;;;;;;;;;;13.52;78.61;98326.69;3456198;28;20434;-45
2021/05/20 06:36:39;;;;;;;;;;;;;;;13.62;78.45;98331.72;3456830;28;19930;-45
2021/05/20 06:38:23;;;;;;;;;;;;;;;13.72;78.72;98338.44;3456291;28;19979;-50
2021/05/20 06:40:05;;;;;;;;;;;;;;;13.79;77.79;98336.56;3457333;28;19933;-51
2021/05/20 06:41:47;;;;;;;;;;;;;;;13.88;78.49;98342.47;3455247;28;19972;-45
2021/05/20 06:43:28;;;;;;;;;;;;;;;13.89;77.98;98344.16;3458007;28;19957;-47
2021/05/20 06:45:10;;;;;;;;;;;;;;;13.90;77.21;98345.91;3456798;28;19930;-51
2021/05/20 06:46:51;;;;;;;;;;;;;;;13.89;77.14;98346.78;3456363;28;19983;-45
2021/05/20 06:48:33;;;;;;;;;;;;;;;13.88;76.35;98345.06;3444105;28;19930;-50
2021/05/20 06:50:14;;;;;;;;;;;;;;;13.89;77.42;98338.94;3452680;28;19941;-52
2021/05/20 06:51:55;;;;;;;;;;;;;;;14.03;76.26;98345.63;3457088;28;19929;-47
2021/05/20 06:53:38;;;;;;;;;;;;;;;14.17;76.81;98345.34;3456427;28;19929;-50
2021/05/20 06:55:20;;;;;;;;;;;;;;;14.34;75.68;98358.88;3458784;28;19936;-51
2021/05/20 06:57:05;;;;;;;;;;;;;;;14.59;76.68;98360.94;3456045;28;19965;-49
2021/05/20 07:00:45;;;;;;;;;;;;;;;14.64;74.05;98359.91;3457537;28;20314;-49
2021/05/20 07:02:28;;;;;;;;;;;;;;;14.65;74.23;98351.19;3455687;28;20391;-46
2021/05/20 07:04:09;;;;;;;;;;;;;;;14.60;74.03;98358.25;3457623;28;19976;-52
2021/05/20 07:05:54;;;;;;;;;;;;;;;14.52;73.83;98349.78;3456125;28;20279;-46
2021/05/20 07:07:37;;;;;;;;;;;;;;;14.39;73.89;98372.66;3457328;28;20395;-46
2021/05/20 07:09:19;;;;;;;;;;;;;;;14.30;73.00;98351.13;3443718;28;19936;-45
2021/05/20 07:11:00;;;;;;;;;;;;;;;14.24;73.92;98376.44;3452341;28;19929;-46
2021/05/20 07:12:42;;;;;;;;;;;;;;;14.20;74.72;98367.00;3456956;28;19971;-45
2021/05/20 07:14:23;;;;;;;;;;;;;;;14.19;74.46;98356.59;3453939;28;19988;-45
2021/05/20 07:16:05;;;;;;;;;;;;;;;14.20;74.78;98369.59;3456315;28;19930;-51
2021/05/20 07:17:46;;;;;;;;;;;;;;;14.21;73.19;98373.91;3457061;28;19937;-51
2021/05/20 07:19:27;;;;;;;;;;;;;;;14.22;73.32;98380.84;3457605;28;19976;-52
2021/05/20 07:21:08;;;;;;;;;;;;;;;14.21;73.84;98362.63;3457650;28;20380;-46
2021/05/20 07:22:49;;;;;;;;;;;;;;;14.20;72.93;98376.53;3457518;28;20391;-45
2021/05/20 07:24:31;;;;;;;;;;;;;;;14.18;73.68;98376.59;3456983;28;20015;-50
2021/05/20 07:26:12;;;;;;;;;;;;;;;14.16;72.63;98367.91;3456562;28;19929;-44
2021/05/20 07:27:54;;;;;;;;;;;;;;;14.15;72.78;98370.59;3456114;28;19930;-45
2021/05/20 07:29:35;;;;;;;;;;;;;;;14.15;72.69;98378.41;3456251;28;20310;-48
2021/05/20 07:31:16;;;;;;;;;;;;;;;14.12;72.50;98384.53;3456427;28;19929;-49
2021/05/20 07:32:57;;;;;;;;;;;;;;;14.11;73.62;98381.97;3456134;28;19929;-45
2021/05/20 07:34:39;;;;;;;;;;;;;;;14.09;73.19;98382.00;3454615;28;19930;-45
2021/05/20 07:36:21;;;;;;;;;;;;;;;14.11;72.96;98384.56;3456656;28;19942;-45
2021/05/20 07:38:02;;;;;;;;;;;;;;;14.08;72.62;98398.53;3455744;28;19957;-53
2021/05/20 07:39:43;;;;;;;;;;;;;;;14.06;72.02;98395.97;3457320;28;19933;-49
2021/05/20 07:41:27;;;;;;;;;;;;;;;14.05;72.58;98380.34;3455118;28;20022;-50
2021/05/20 07:43:09;;;;;;;;;;;;;;;14.04;72.42;98392.53;3455718;28;19930;-45
2021/05/20 07:44:54;;;;;;;;;;;;;;;14.05;73.49;98391.63;3455913;28;19930;-50
2021/05/20 07:46:35;;;;;;;;;;;;;;;14.07;72.90;98391.59;3457136;28;19973;-48
2021/05/20 07:48:16;;;;;;;;;;;;;;;14.11;72.98;98400.22;3443741;28;19945;-44
2021/05/20 07:50:01;;;;;;;;;;;;;;;14.12;72.21;98401.94;3443428;28;19937;-45
2021/05/20 07:51:42;;;;;;;;;;;;;;;14.15;71.62;98413.16;3455924;28;20441;-48
2021/05/20 07:53:23;;;;;;;;;;;;;;;14.15;71.87;98399.28;3456172;28;19936;-46
2021/05/20 07:55:06;;;;;;;;;;;;;;;14.15;72.55;98388.84;3455314;28;19936;-46
2021/05/20 07:56:47;;;;;;;;;;;;;;;14.16;71.77;98398.38;3456326;28;19936;-48
2021/05/20 07:58:29;;;;;;;;;;;;;;;14.18;72.19;98400.06;3455135;28;20357;-49
2021/05/20 08:00:12;;;;;;;;;;;;;;;14.20;71.66;98400.00;3455721;28;19937;-52
2021/05/20 08:02:00;;;;;;;;;;;;;;;14.21;71.11;98401.75;3454238;28;20032;-47
2021/05/20 08:03:44;;;;;;;;;;;;;;;14.25;71.82;98408.59;3455590;28;19941;-48
2021/05/20 08:05:30;;;;;;;;;;;;;;;14.28;71.22;98408.53;3455607;28;19936;-45
2021/05/20 08:07:17;;;;;;;;;;;;;;;14.32;71.22;98418.03;3454381;28;19980;-45
2021/05/20 08:09:01;;;;;;;;;;;;;;;14.36;71.26;98422.31;3455885;28;19929;-46
2021/05/20 08:10:51;;;;;;;;;;;;;;;14.36;71.79;98424.94;3454803;28;19929;-46
2021/05/20 08:12:32;;;;;;;;;;;;;;;14.39;72.41;98426.59;3456388;28;20460;-48
2021/05/20 08:14:14;;;;;;;;;;;;;;;14.41;73.05;98425.69;3454236;28;19933;-47
2021/05/20 08:15:55;;;;;;;;;;;;;;;14.49;72.76;98430.72;3447894;28;19930;-45
2021/05/20 08:17:36;;;;;;;;;;;;;;;14.61;72.79;98425.22;3448949;28;19937;-44
2021/05/20 08:19:17;;;;;;;;;;;;;;;14.70;72.80;98429.38;3455051;28;19930;-47
2021/05/20 08:20:59;;;;;;;;;;;;;;;14.71;72.15;98423.28;3455330;28;19929;-45
2021/05/20 08:22:41;;;;;;;;;;;;;;;14.68;72.58;98431.19;3455968;28;20024;-50
2021/05/20 08:24:22;;;;;;;;;;;;;;;14.62;71.80;98437.41;3456251;28;20339;-43
2021/05/20 08:26:04;;;;;;;;;;;;;;;14.54;72.01;98446.28;3454238;28;19945;-45
2021/05/20 08:27:45;;;;;;;;;;;;;;;14.44;71.85;98443.88;3455105;28;20453;-45
2021/05/20 08:29:28;;;;;;;;;;;;;;;14.31;72.15;98446.75;3455877;28;19929;-48
2021/05/20 08:31:09;;;;;;;;;;;;;;;14.23;72.41;98466.00;3454181;28;19929;-45
2021/05/20 08:32:51;;;;;;;;;;;;;;;14.20;73.01;98446.97;3455455;28;19999;-45
2021/05/20 08:34:32;;;;;;;;;;;;;;;14.17;73.76;98453.13;3456332;28;19984;-45
2021/05/20 08:36:13;;;;;;;;;;;;;;;14.18;73.25;98453.97;3455465;28;19929;-44
2021/05/20 08:37:55;;;;;;;;;;;;;;;14.18;72.79;98454.84;3455255;28;19934;-48
2021/05/20 08:39:36;;;;;;;;;;;;;;;14.20;73.14;98454.78;3454392;28;20307;-49
2021/05/20 08:41:18;;;;;;;;;;;;;;;14.20;72.52;98460.88;3442040;28;19973;-50
2021/05/20 08:42:59;;;;;;;;;;;;;;;14.20;73.06;98450.44;3451047;28;20430;-50
2021/05/20 08:44:41;;;;;;;;;;;;;;;14.24;73.10;98459.91;3457278;28;20418;-43
2021/05/20 08:46:23;;;;;;;;;;;;;;;14.24;72.33;98457.31;3458786;28;19929;-45
2021/05/20 08:48:04;;;;;;;;;;;;;;;14.29;71.73;98459.84;3460903;28;19929;-45
2021/05/20 08:49:47;;;;;;;;;;;;;;;14.36;71.26;98448.41;3459845;28;19973;-44